Terminal Aerodrome Forecast
Issued by NWS

Home | Current Version | Previous Version | Text Only | Print | Product List | Glossary On
Versions: 1 2 3 4 5 6 7 8 9 10 11 12 13 14 15 16 17 18 19 20 21 22 23 24
000
FTUS42 KGSP 191120
TAFGMU
TAF
KGMU 191120Z 1912/2012 12007KT 4SM SHRA BR OVC002
      TEMPO 1912/1914 2SM SHRA BR
     FM191400 15009KT 1 1/2SM SHRA BR OVC003
     FM191700 14009KT 1 1/2SM SHRA BR VCTS OVC003CB
     FM192200 20012G20KT 4SM SHRA BR OVC008 PROB30 1922/2004 2SM
      TSRA OVC008CB
     FM200400 21012G20KT P6SM OVC008
     FM200600 22010KT P6SM BKN014
     FM201000 22007KT P6SM BKN008=

USA.gov is the U.S. government's official web portal to all federal, state and local government web resources and services.